Time,TemperatureF,DewpointF,PressureIn,WindDirection,WindDirectionDegrees,WindSpeedMPH,WindSpeedGustMPH,Humidity,HourlyPrecipIn,Conditions,Clouds,dailyrainin,SolarRadiationWatts/m^2,SoftwareType,DateUTC
2013-09-14 00:03:00,52.6,50.3,29.92,NNW,339,3.5,3.5,92,0.01,RA,,0.01,0.0,WeatherDisplay:10.37,2013-09-14 08:03:00,
2013-09-14 00:08:00,52.5,50.2,29.92,NE,53,5.8,5.8,92,0.01,RA,,0.01,0.0,WeatherDisplay:10.37,2013-09-14 08:08:00,
2013-09-14 00:13:00,52.4,49.8,29.93,NNE,29,6.9,6.9,91,0.01,OVC,,0.01,0.0,WeatherDisplay:10.37,2013-09-14 08:13:00,
2013-09-14 00:18:00,52.3,49.8,29.92,NNE,22,3.5,3.5,91,0.01,OVC,,0.01,0.0,WeatherDisplay:10.37,2013-09-14 08:18:00,
2013-09-14 00:23:00,52.3,49.8,29.93,NNE,32,4.0,4.0,91,0.01,OVC,,0.01,0.0,WeatherDisplay:10.37,2013-09-14 08:23:00,
2013-09-14 00:28:00,52.3,49.8,29.92,NNE,24,5.8,5.8,91,0.01,OVC,,0.01,0.0,WeatherDisplay:10.37,2013-09-14 08:28:00,
2013-09-14 00:33:00,52.2,49.9,29.92,NE,41,8.1,8.1,92,0.02,RA,,0.02,0.0,WeatherDisplay:10.37,2013-09-14 08:33:00,
2013-09-14 00:38:00,52.2,49.9,29.92,NE,36,5.8,5.8,92,0.02,RA,,0.02,0.0,WeatherDisplay:10.37,2013-09-14 08:38:00,
2013-09-14 00:43:00,52.1,49.8,29.92,NE,35,5.8,5.8,92,0.02,OVC,,0.02,0.0,WeatherDisplay:10.37,2013-09-14 08:43:00,
2013-09-14 00:48:00,52.1,49.8,29.92,NE,47,4.6,4.6,92,0.02,OVC,,0.02,0.0,WeatherDisplay:10.37,2013-09-14 08:48:00,
2013-09-14 00:53:00,52.1,49.8,29.92,NNE,24,8.1,8.1,92,0.02,OVC,,0.02,0.0,WeatherDisplay:10.37,2013-09-14 08:53:00,
2013-09-14 00:58:00,52.0,49.7,29.91,NNE,28,4.6,4.6,92,0.02,OVC,,0.02,0.0,WeatherDisplay:10.37,2013-09-14 08:58:00,
2013-09-14 01:03:00,51.9,49.6,29.91,NE,41,6.9,6.9,92,0.02,RA,,0.03,0.0,WeatherDisplay:10.37,2013-09-14 09:03:00,
2013-09-14 01:08:00,51.9,49.6,29.91,NE,52,5.8,5.8,92,0.02,RA,,0.03,0.0,WeatherDisplay:10.37,2013-09-14 09:08:00,
2013-09-14 01:13:00,51.8,49.8,29.91,NE,46,6.9,6.9,93,0.02,OVC,,0.03,0.0,WeatherDisplay:10.37,2013-09-14 09:13:00,
2013-09-14 01:18:00,51.7,49.5,29.91,SE,132,8.1,8.1,92,0.02,OVC,,0.03,0.0,WeatherDisplay:10.37,2013-09-14 09:18:00,
2013-09-14 01:23:00,51.6,49.4,29.91,NE,39,9.2,9.2,92,0.02,OVC,,0.03,0.0,WeatherDisplay:10.37,2013-09-14 09:23:00,
2013-09-14 01:28:00,51.5,49.3,29.91,NE,34,6.9,6.9,92,0.02,OVC,,0.03,0.0,WeatherDisplay:10.37,2013-09-14 09:28:00,
2013-09-14 01:33:00,51.5,49.3,29.91,East,84,5.8,5.8,92,0.01,OVC,,0.03,0.0,WeatherDisplay:10.37,2013-09-14 09:33:00,
2013-09-14 01:38:00,51.4,49.2,29.91,ENE,72,5.8,5.8,92,0.01,OVC,,0.03,0.0,WeatherDisplay:10.37,2013-09-14 09:38:00,
2013-09-14 01:43:00,51.3,49.1,29.91,East,80,3.5,3.5,92,0.01,OVC,,0.03,0.0,WeatherDisplay:10.37,2013-09-14 09:43:00,
2013-09-14 01:48:00,51.3,49.1,29.91,East,90,3.5,3.5,92,0.01,OVC,,0.03,0.0,WeatherDisplay:10.37,2013-09-14 09:48:00,
2013-09-14 01:53:00,51.3,49.1,29.91,NNE,13,11.0,11.0,92,0.01,OVC,,0.03,0.0,WeatherDisplay:10.37,2013-09-14 09:53:00,
2013-09-14 01:58:00,51.3,48.8,29.91,ENE,71,6.9,6.9,91,0.01,OVC,,0.03,0.0,WeatherDisplay:10.37,2013-09-14 09:58:00,
2013-09-14 02:03:00,51.3,48.8,29.91,ENE,67,3.5,3.5,91,0.00,SCT,,0.03,0.0,WeatherDisplay:10.37,2013-09-14 10:03:00,
2013-09-14 02:08:00,51.2,48.7,29.91,NE,51,5.8,5.8,91,0.00,SCT,,0.03,0.0,WeatherDisplay:10.37,2013-09-14 10:08:00,
2013-09-14 02:13:00,51.1,48.6,29.91,ENE,68,4.6,4.6,91,0.00,SCT,,0.03,0.0,WeatherDisplay:10.37,2013-09-14 10:13:00,
2013-09-14 02:18:00,51.0,48.8,29.91,NE,43,6.9,6.9,92,0.00,SCT,,0.03,0.0,WeatherDisplay:10.37,2013-09-14 10:18:00,
2013-09-14 02:23:00,50.9,48.7,29.91,ESE,116,5.8,5.8,92,0.00,SCT,,0.03,0.0,WeatherDisplay:10.37,2013-09-14 10:23:00,
2013-09-14 02:28:00,51.0,48.8,29.91,NNE,22,4.6,4.6,92,0.00,SCT,,0.03,0.0,WeatherDisplay:10.37,2013-09-14 10:28:00,
2013-09-14 02:33:00,51.0,48.8,29.91,ENE,59,5.8,5.8,92,0.00,SCT,,0.03,0.0,WeatherDisplay:10.37,2013-09-14 10:33:00,
2013-09-14 02:38:00,51.1,48.9,29.91,NE,35,4.6,4.6,92,0.00,SCT,,0.03,0.0,WeatherDisplay:10.37,2013-09-14 10:38:00,
2013-09-14 02:43:00,51.1,48.9,29.91,North,5,9.2,9.2,92,0.00,SCT,,0.03,0.0,WeatherDisplay:10.37,2013-09-14 10:43:00,
2013-09-14 02:48:00,51.1,48.9,29.91,East,79,3.5,3.5,92,0.00,SCT,,0.03,0.0,WeatherDisplay:10.37,2013-09-14 10:48:00,
2013-09-14 02:53:00,51.0,48.8,29.91,NNE,19,6.9,6.9,92,0.00,SCT,,0.03,0.0,WeatherDisplay:10.37,2013-09-14 10:53:00,
2013-09-14 02:58:00,51.0,48.8,29.91,NE,51,9.2,9.2,92,0.00,SCT,,0.03,0.0,WeatherDisplay:10.37,2013-09-14 10:58:00,
2013-09-14 03:03:00,51.0,48.8,29.91,NNE,28,7.0,7.0,92,0.00,SCT,,0.03,0.0,WeatherDisplay:10.37,2013-09-14 11:03:00,
2013-09-14 03:08:00,51.0,48.8,29.91,NE,40,6.0,6.0,92,0.00,SCT,,0.03,0.0,WeatherDisplay:10.37,2013-09-14 11:08:00,
2013-09-14 03:13:00,50.9,48.7,29.91,NE,42,5.8,5.8,92,0.00,SCT,,0.03,0.0,WeatherDisplay:10.37,2013-09-14 11:13:00,
2013-09-14 03:18:00,50.8,48.3,29.91,ENE,59,4.6,4.6,91,0.00,SCT,,0.03,0.0,WeatherDisplay:10.37,2013-09-14 11:18:00,
2013-09-14 03:23:00,50.8,48.3,29.91,NE,39,9.0,9.0,91,0.00,SCT,,0.03,0.0,WeatherDisplay:10.37,2013-09-14 11:23:00,
2013-09-14 03:28:00,50.8,48.3,29.91,ENE,67,4.6,4.6,91,0.00,SCT,,0.03,0.0,WeatherDisplay:10.37,2013-09-14 11:28:00,
2013-09-14 03:33:00,50.8,48.3,29.91,ESE,121,9.2,9.2,91,0.00,SCT,,0.03,0.0,WeatherDisplay:10.37,2013-09-14 11:33:00,
2013-09-14 03:38:00,50.8,48.3,29.91,NE,37,6.9,6.9,91,0.00,SCT,,0.03,0.0,WeatherDisplay:10.37,2013-09-14 11:38:00,
2013-09-14 03:43:00,50.8,48.3,29.91,NNE,18,4.6,4.6,91,0.00,SCT,,0.03,0.0,WeatherDisplay:10.37,2013-09-14 11:43:00,
2013-09-14 03:48:00,50.8,48.3,29.91,NE,47,4.6,4.6,91,0.00,SCT,,0.03,0.0,WeatherDisplay:10.37,2013-09-14 11:48:00,
2013-09-14 03:53:00,50.7,48.2,29.91,East,82,3.5,3.5,91,0.00,SCT,,0.03,0.0,WeatherDisplay:10.37,2013-09-14 11:53:00,
2013-09-14 03:58:00,50.7,48.2,29.90,NNE,26,4.6,4.6,91,0.00,SCT,,0.03,0.0,WeatherDisplay:10.37,2013-09-14 11:58:00,
2013-09-14 04:03:00,50.6,48.4,29.91,East,87,2.3,2.3,92,0.00,BKN,,0.03,0.0,WeatherDisplay:10.37,2013-09-14 12:03:00,
2013-09-14 04:08:00,50.6,48.4,29.91,ESE,111,3.5,3.5,92,0.00,BKN,,0.03,0.0,WeatherDisplay:10.37,2013-09-14 12:08:00,
2013-09-14 04:13:00,50.5,48.3,29.91,ENE,67,4.6,4.6,92,0.00,BKN,,0.03,0.0,WeatherDisplay:10.37,2013-09-14 12:13:00,
2013-09-14 04:18:00,50.5,48.3,29.90,East,90,3.5,3.5,92,0.00,BKN,,0.03,0.0,WeatherDisplay:10.37,2013-09-14 12:18:00,
2013-09-14 04:23:00,50.4,48.2,29.90,East,85,3.5,3.5,92,0.00,BKN,,0.03,0.0,WeatherDisplay:10.37,2013-09-14 12:23:00,
2013-09-14 04:28:00,50.3,48.1,29.90,ENE,57,2.3,2.3,92,0.00,BKN,,0.03,0.0,WeatherDisplay:10.37,2013-09-14 12:28:00,
2013-09-14 04:33:00,50.1,47.9,29.90,NE,41,3.5,3.5,92,0.00,BKN,,0.03,0.0,WeatherDisplay:10.37,2013-09-14 12:33:00,
2013-09-14 04:38:00,50.0,47.8,29.90,NE,53,4.6,4.6,92,0.00,BKN,,0.03,0.0,WeatherDisplay:10.37,2013-09-14 12:38:00,
2013-09-14 04:43:00,49.9,47.7,29.90,NNE,18,3.5,3.5,92,0.00,BKN,,0.03,0.0,WeatherDisplay:10.37,2013-09-14 12:43:00,
2013-09-14 04:48:00,49.7,47.5,29.89,NE,49,5.8,5.8,92,0.00,BKN,,0.03,0.0,WeatherDisplay:10.37,2013-09-14 12:48:00,
2013-09-14 04:53:00,49.7,47.5,29.89,NNE,26,6.9,6.9,92,0.00,BKN,,0.03,0.0,WeatherDisplay:10.37,2013-09-14 12:53:00,
2013-09-14 04:58:00,49.6,47.4,29.89,NE,42,4.0,4.0,92,0.00,BKN,,0.03,0.0,WeatherDisplay:10.37,2013-09-14 12:58:00,
2013-09-14 05:03:00,49.6,47.7,29.89,NE,49,3.5,3.5,93,0.00,CLR,,0.03,0.0,WeatherDisplay:10.37,2013-09-14 13:03:00,
2013-09-14 05:08:00,49.5,47.6,29.89,NNE,28,6.9,6.9,93,0.00,CLR,,0.03,0.0,WeatherDisplay:10.37,2013-09-14 13:08:00,
2013-09-14 05:13:00,49.5,47.6,29.89,NNE,29,6.9,6.9,93,0.00,CLR,,0.03,0.0,WeatherDisplay:10.37,2013-09-14 13:13:00,
2013-09-14 05:18:00,49.5,47.6,29.89,NNE,32,5.8,5.8,93,0.00,CLR,,0.03,0.0,WeatherDisplay:10.37,2013-09-14 13:18:00,
2013-09-14 05:23:00,49.6,47.7,29.89,NNE,32,4.0,4.0,93,0.00,CLR,,0.03,0.0,WeatherDisplay:10.37,2013-09-14 13:23:00,
2013-09-14 05:28:00,49.6,47.7,29.89,North,5,5.0,5.0,93,0.00,CLR,,0.03,0.0,WeatherDisplay:10.37,2013-09-14 13:28:00,
2013-09-14 05:33:00,49.6,47.7,29.89,ENE,65,4.6,4.6,93,0.00,CLR,,0.03,0.0,WeatherDisplay:10.37,2013-09-14 13:33:00,
2013-09-14 05:38:00,49.5,47.6,29.89,NE,40,4.0,4.0,93,0.00,CLR,,0.03,0.0,WeatherDisplay:10.37,2013-09-14 13:38:00,
2013-09-14 05:43:00,49.5,47.6,29.89,NE,40,3.5,3.5,93,0.00,CLR,,0.03,0.0,WeatherDisplay:10.37,2013-09-14 13:43:00,
2013-09-14 05:48:00,49.4,47.5,29.89,NE,36,3.5,3.5,93,0.00,CLR,,0.03,0.0,WeatherDisplay:10.37,2013-09-14 13:48:00,
2013-09-14 05:53:00,49.4,47.5,29.89,NE,41,4.6,4.6,93,0.00,CLR,,0.03,0.0,WeatherDisplay:10.37,2013-09-14 13:53:00,
2013-09-14 05:58:00,49.3,47.4,29.89,NE,42,3.5,3.5,93,0.00,CLR,,0.03,0.0,WeatherDisplay:10.37,2013-09-14 13:58:00,
2013-09-14 06:03:00,49.3,47.4,29.89,NNE,31,3.5,3.5,93,0.00,CLR,,0.03,0.0,WeatherDisplay:10.37,2013-09-14 14:03:00,
2013-09-14 06:08:00,49.3,47.4,29.89,NNE,20,3.5,3.5,93,0.00,CLR,,0.03,0.0,WeatherDisplay:10.37,2013-09-14 14:08:00,
2013-09-14 06:13:00,49.3,47.4,29.89,NE,53,5.8,5.8,93,0.00,CLR,,0.03,0.0,WeatherDisplay:10.37,2013-09-14 14:13:00,
2013-09-14 06:18:00,49.3,47.4,29.89,ENE,57,6.9,6.9,93,0.00,CLR,,0.03,0.0,WeatherDisplay:10.37,2013-09-14 14:18:00,
2013-09-14 06:23:00,49.4,47.5,29.89,ESE,114,5.8,5.8,93,0.00,CLR,,0.03,0.0,WeatherDisplay:10.37,2013-09-14 14:23:00,
2013-09-14 06:28:00,49.5,47.6,29.89,ENE,65,8.1,8.1,93,0.00,CLR,,0.03,0.0,WeatherDisplay:10.37,2013-09-14 14:28:00,
2013-09-14 06:33:00,49.5,47.6,29.89,SE,129,4.6,4.6,93,0.00,CLR,,0.03,0.0,WeatherDisplay:10.37,2013-09-14 14:33:00,
2013-09-14 06:38:00,49.5,47.6,29.89,East,86,3.5,3.5,93,0.00,CLR,,0.03,0.0,WeatherDisplay:10.37,2013-09-14 14:38:00,
2013-09-14 06:43:00,49.6,47.7,29.89,ENE,75,3.5,3.5,93,0.00,CLR,,0.03,0.0,WeatherDisplay:10.37,2013-09-14 14:43:00,
2013-09-14 06:48:00,49.6,47.7,29.89,NE,45,2.3,2.3,93,0.00,CLR,,0.03,0.0,WeatherDisplay:10.37,2013-09-14 14:48:00,
2013-09-14 06:53:00,49.7,47.8,29.89,NNE,30,3.5,3.5,93,0.00,CLR,,0.03,0.0,WeatherDisplay:10.37,2013-09-14 14:53:00,
2013-09-14 06:58:00,49.7,47.8,29.89,NE,36,5.0,5.0,93,0.00,CLR,,0.03,0.0,WeatherDisplay:10.37,2013-09-14 14:58:00,
2013-09-14 07:03:00,49.8,47.9,29.89,ENE,60,3.5,3.5,93,0.00,OVC,,0.03,0.0,WeatherDisplay:10.37,2013-09-14 15:03:00,
2013-09-14 07:08:00,49.7,47.8,29.89,ENE,65,1.2,1.2,93,0.00,OVC,,0.03,0.0,WeatherDisplay:10.37,2013-09-14 15:08:00,
2013-09-14 07:13:00,49.7,47.5,29.89,NE,36,3.5,3.5,92,0.00,OVC,,0.03,0.0,WeatherDisplay:10.37,2013-09-14 15:13:00,
2013-09-14 07:18:00,49.7,47.5,29.89,ENE,59,3.5,3.5,92,0.00,OVC,,0.03,0.0,WeatherDisplay:10.37,2013-09-14 15:18:00,
2013-09-14 07:23:00,49.6,47.4,29.88,ENE,75,3.5,3.5,92,0.00,OVC,,0.03,0.0,WeatherDisplay:10.37,2013-09-14 15:23:00,
2013-09-14 07:28:00,49.7,47.5,29.88,ENE,71,2.3,2.3,92,0.00,OVC,,0.03,0.0,WeatherDisplay:10.37,2013-09-14 15:28:00,
2013-09-14 07:33:00,49.7,47.5,29.88,NE,37,3.5,3.5,92,0.00,OVC,,0.03,0.0,WeatherDisplay:10.37,2013-09-14 15:33:00,
2013-09-14 07:38:00,49.7,47.5,29.88,NE,36,2.3,2.3,92,0.00,OVC,,0.03,5.0,WeatherDisplay:10.37,2013-09-14 15:38:00,
2013-09-14 07:43:00,49.7,47.5,29.88,ENE,58,2.3,2.3,92,0.00,OVC,,0.03,5.0,WeatherDisplay:10.37,2013-09-14 15:43:00,
2013-09-14 07:48:00,49.6,47.4,29.88,East,94,3.5,3.5,92,0.00,OVC,,0.03,7.0,WeatherDisplay:10.37,2013-09-14 15:48:00,
2013-09-14 07:53:00,49.6,47.7,29.88,East,94,3.5,3.5,93,0.00,OVC,,0.03,7.0,WeatherDisplay:10.37,2013-09-14 15:53:00,
2013-09-14 07:59:00,49.5,47.6,29.88,East,94,3.5,3.5,93,0.00,OVC,,0.03,9.0,WeatherDisplay:10.37,2013-09-14 15:59:00,
2013-09-14 08:04:00,49.4,47.5,29.88,East,94,3.5,3.5,93,0.00,SCT,,0.03,11.0,WeatherDisplay:10.37,2013-09-14 16:04:00,
2013-09-14 08:09:00,49.3,47.4,29.88,NNE,32,3.5,3.5,93,0.00,SCT,,0.03,12.0,WeatherDisplay:10.37,2013-09-14 16:09:00,
2013-09-14 08:14:00,49.2,47.5,29.88,NNE,19,4.0,4.0,94,0.00,SCT,,0.03,14.0,WeatherDisplay:10.37,2013-09-14 16:14:00,
2013-09-14 08:19:00,49.2,47.5,29.88,NE,37,5.8,5.8,94,0.00,SCT,,0.03,18.0,WeatherDisplay:10.37,2013-09-14 16:19:00,
2013-09-14 08:24:00,49.2,47.5,29.89,North,11,3.5,3.5,94,0.00,SCT,,0.03,21.0,WeatherDisplay:10.37,2013-09-14 16:24:00,
2013-09-14 08:29:00,49.3,47.9,29.89,ENE,77,2.3,2.3,95,0.00,SCT,,0.03,21.0,WeatherDisplay:10.37,2013-09-14 16:29:00,
2013-09-14 08:34:00,49.4,48.0,29.89,East,91,3.5,3.5,95,0.00,SCT,,0.03,28.0,WeatherDisplay:10.37,2013-09-14 16:34:00,
2013-09-14 08:39:00,49.4,48.0,29.89,NNE,22,4.6,4.6,95,0.00,SCT,,0.03,28.0,WeatherDisplay:10.37,2013-09-14 16:39:00,
2013-09-14 08:44:00,49.6,48.2,29.89,ENE,77,3.5,3.5,95,0.00,SCT,,0.03,26.0,WeatherDisplay:10.37,2013-09-14 16:44:00,
2013-09-14 08:49:00,49.7,48.3,29.89,East,93,4.6,4.6,95,0.00,SCT,,0.03,26.0,WeatherDisplay:10.37,2013-09-14 16:49:00,
2013-09-14 08:54:00,49.8,48.4,29.89,ENE,70,4.6,4.6,95,0.00,SCT,,0.03,26.0,WeatherDisplay:10.37,2013-09-14 16:54:00,
2013-09-14 08:59:00,50.0,48.6,29.89,SE,129,3.5,3.5,95,0.00,SCT,,0.03,28.0,WeatherDisplay:10.37,2013-09-14 16:59:00,
2013-09-14 09:04:00,50.1,48.4,29.89,NE,34,5.0,5.0,94,0.00,FEW,,0.03,28.0,WeatherDisplay:10.37,2013-09-14 17:04:00,
2013-09-14 09:09:00,50.3,48.6,29.89,ENE,59,3.5,3.5,94,0.00,FEW,,0.03,46.0,WeatherDisplay:10.37,2013-09-14 17:09:00,
2013-09-14 09:14:00,50.5,48.6,29.89,NE,36,3.5,3.5,93,0.00,FEW,,0.03,60.0,WeatherDisplay:10.37,2013-09-14 17:14:00,
2013-09-14 09:19:00,50.8,48.8,29.89,East,82,3.5,3.5,93,0.00,FEW,,0.03,30.0,WeatherDisplay:10.37,2013-09-14 17:19:00,
2013-09-14 09:24:00,51.0,48.8,29.89,ESE,104,4.0,4.0,92,0.00,FEW,,0.03,39.0,WeatherDisplay:10.37,2013-09-14 17:24:00,
2013-09-14 09:29:00,51.1,48.9,29.90,East,95,1.2,1.2,92,0.00,FEW,,0.03,40.0,WeatherDisplay:10.37,2013-09-14 17:29:00,
2013-09-14 09:34:00,51.2,49.0,29.90,East,95,4.6,4.6,92,0.00,FEW,,0.03,35.0,WeatherDisplay:10.37,2013-09-14 17:34:00,
2013-09-14 09:39:00,51.3,49.1,29.90,East,95,4.6,4.6,92,0.00,FEW,,0.03,104.0,WeatherDisplay:10.37,2013-09-14 17:39:00,
2013-09-14 09:44:00,51.5,49.3,29.90,ENE,57,1.2,1.2,92,0.00,FEW,,0.03,60.0,WeatherDisplay:10.37,2013-09-14 17:44:00,
2013-09-14 09:49:00,51.7,49.5,29.89,ENE,78,3.5,3.5,92,0.00,FEW,,0.03,35.0,WeatherDisplay:10.37,2013-09-14 17:49:00,
2013-09-14 09:54:00,52.0,49.5,29.90,ENE,76,5.8,5.8,91,0.00,FEW,,0.03,188.0,WeatherDisplay:10.37,2013-09-14 17:54:00,
2013-09-14 09:59:00,52.5,49.9,29.90,East,97,2.3,2.3,91,0.00,FEW,,0.03,267.0,WeatherDisplay:10.37,2013-09-14 17:59:00,
2013-09-14 10:04:00,53.0,49.8,29.90,ENE,74,3.5,3.5,89,0.00,CLR,,0.03,276.0,WeatherDisplay:10.37,2013-09-14 18:04:00,
2013-09-14 10:09:00,53.7,50.2,29.90,ENE,71,3.5,3.5,88,0.00,CLR,,0.03,288.0,WeatherDisplay:10.37,2013-09-14 18:09:00,
2013-09-14 10:14:00,54.1,50.0,29.90,East,96,4.6,4.6,86,0.00,CLR,,0.03,297.0,WeatherDisplay:10.37,2013-09-14 18:14:00,
2013-09-14 10:19:00,54.6,50.5,29.90,NNE,31,4.6,4.6,86,0.00,CLR,,0.03,309.0,WeatherDisplay:10.37,2013-09-14 18:19:00,
2013-09-14 10:24:00,54.9,50.5,29.90,North,5,3.0,3.0,85,0.00,CLR,,0.03,320.0,WeatherDisplay:10.37,2013-09-14 18:24:00,
2013-09-14 10:29:00,55.2,50.4,29.89,ENE,65,3.5,3.5,84,0.00,CLR,,0.03,334.0,WeatherDisplay:10.37,2013-09-14 18:29:00,
2013-09-14 10:34:00,55.6,50.8,29.89,East,79,7.0,7.0,84,0.00,CLR,,0.03,350.0,WeatherDisplay:10.37,2013-09-14 18:34:00,
2013-09-14 10:39:00,55.9,50.8,29.89,NE,49,2.3,2.3,83,0.00,CLR,,0.03,362.0,WeatherDisplay:10.37,2013-09-14 18:39:00,
2013-09-14 10:44:00,56.2,51.1,29.89,NE,36,3.5,3.5,83,0.00,CLR,,0.03,339.0,WeatherDisplay:10.37,2013-09-14 18:44:00,
2013-09-14 10:49:00,56.5,50.4,29.89,East,92,5.0,5.0,80,0.00,CLR,,0.03,380.0,WeatherDisplay:10.37,2013-09-14 18:49:00,
2013-09-14 10:54:00,56.9,50.8,29.89,East,92,5.8,5.8,80,0.00,CLR,,0.03,390.0,WeatherDisplay:10.37,2013-09-14 18:54:00,
2013-09-14 10:59:00,57.3,50.8,29.89,East,98,5.8,5.8,79,0.00,CLR,,0.03,401.0,WeatherDisplay:10.37,2013-09-14 18:59:00,
2013-09-14 11:04:00,57.5,50.7,29.89,NNE,30,3.5,3.5,78,0.00,CLR,,0.03,410.0,WeatherDisplay:10.37,2013-09-14 19:04:00,
2013-09-14 11:09:00,57.8,50.6,29.89,East,90,5.8,5.8,77,0.00,CLR,,0.03,417.0,WeatherDisplay:10.37,2013-09-14 19:09:00,
2013-09-14 11:14:00,58.3,50.8,29.90,NNE,22,4.6,4.6,76,0.00,CLR,,0.03,427.0,WeatherDisplay:10.37,2013-09-14 19:14:00,
2013-09-14 11:19:00,58.4,49.8,29.89,ENE,67,5.0,5.0,73,0.00,CLR,,0.03,436.0,WeatherDisplay:10.37,2013-09-14 19:19:00,
2013-09-14 11:24:00,58.5,49.9,29.89,NNE,25,8.1,8.1,73,0.00,CLR,,0.03,443.0,WeatherDisplay:10.37,2013-09-14 19:24:00,
2013-09-14 11:29:00,58.6,49.6,29.89,NE,36,6.9,6.9,72,0.00,CLR,,0.03,452.0,WeatherDisplay:10.37,2013-09-14 19:29:00,
2013-09-14 11:34:00,58.6,50.0,29.89,NE,47,4.6,4.6,73,0.00,CLR,,0.03,457.0,WeatherDisplay:10.37,2013-09-14 19:34:00,
2013-09-14 11:39:00,58.8,49.8,29.89,North,5,6.0,6.0,72,0.00,CLR,,0.03,468.0,WeatherDisplay:10.37,2013-09-14 19:39:00,
2013-09-14 11:44:00,59.0,49.2,29.89,East,97,5.8,5.8,70,0.00,CLR,,0.03,475.0,WeatherDisplay:10.37,2013-09-14 19:44:00,
2013-09-14 11:49:00,59.3,49.1,29.89,North,355,7.0,7.0,69,0.00,CLR,,0.03,482.0,WeatherDisplay:10.37,2013-09-14 19:49:00,
2013-09-14 11:54:00,59.6,49.8,29.89,NE,54,6.0,6.0,70,0.00,CLR,,0.03,489.0,WeatherDisplay:10.37,2013-09-14 19:54:00,
2013-09-14 11:59:00,59.9,48.9,29.89,East,96,3.5,3.5,67,0.00,CLR,,0.03,496.0,WeatherDisplay:10.37,2013-09-14 19:59:00,
2013-09-14 12:04:00,60.3,49.7,29.89,NNE,15,6.9,6.9,68,0.00,CLR,,0.03,503.0,WeatherDisplay:10.37,2013-09-14 20:04:00,
2013-09-14 12:09:00,60.5,49.1,29.89,NE,52,8.1,8.1,66,0.00,CLR,,0.03,506.0,WeatherDisplay:10.37,2013-09-14 20:09:00,
2013-09-14 12:14:00,60.9,49.5,29.88,NNE,30,8.1,8.1,66,0.00,CLR,,0.03,513.0,WeatherDisplay:10.37,2013-09-14 20:14:00,
2013-09-14 12:19:00,61.0,49.1,29.89,ENE,63,6.9,6.9,65,0.00,CLR,,0.03,520.0,WeatherDisplay:10.37,2013-09-14 20:19:00,
2013-09-14 12:24:00,61.2,48.9,29.89,NNE,28,4.0,4.0,64,0.00,CLR,,0.03,526.0,WeatherDisplay:10.37,2013-09-14 20:24:00,
2013-09-14 12:29:00,61.2,48.5,29.88,NNE,14,5.8,5.8,63,0.00,CLR,,0.03,531.0,WeatherDisplay:10.37,2013-09-14 20:29:00,
2013-09-14 12:34:00,60.8,47.7,29.88,ENE,73,6.9,6.9,62,0.00,CLR,,0.03,534.0,WeatherDisplay:10.37,2013-09-14 20:34:00,
2013-09-14 12:39:00,60.7,48.4,29.88,NE,39,6.9,6.9,64,0.00,CLR,,0.03,540.0,WeatherDisplay:10.37,2013-09-14 20:39:00,
2013-09-14 12:44:00,61.0,48.7,29.88,NNE,33,7.0,7.0,64,0.00,CLR,,0.03,543.0,WeatherDisplay:10.37,2013-09-14 20:44:00,
2013-09-14 12:49:00,61.1,48.4,29.88,ENE,62,10.4,10.4,63,0.00,CLR,,0.03,548.0,WeatherDisplay:10.37,2013-09-14 20:49:00,
2013-09-14 12:54:00,61.3,48.2,29.88,East,94,6.9,6.9,62,0.00,CLR,,0.03,552.0,WeatherDisplay:10.37,2013-09-14 20:54:00,
2013-09-14 12:59:00,61.5,48.4,29.88,ENE,65,6.9,6.9,62,0.00,CLR,,0.03,555.0,WeatherDisplay:10.37,2013-09-14 20:59:00,
2013-09-14 13:04:00,61.7,48.5,29.88,ENE,63,8.1,8.1,62,0.00,CLR,,0.03,561.0,WeatherDisplay:10.37,2013-09-14 21:04:00,
2013-09-14 13:09:00,61.8,48.2,29.88,ENE,74,11.5,11.5,61,0.00,CLR,,0.03,563.0,WeatherDisplay:10.37,2013-09-14 21:09:00,
2013-09-14 13:14:00,61.9,48.3,29.87,North,360,5.8,5.8,61,0.00,CLR,,0.03,566.0,WeatherDisplay:10.37,2013-09-14 21:14:00,
2013-09-14 13:19:00,61.9,48.3,29.87,ENE,58,12.7,12.7,61,0.00,CLR,,0.03,568.0,WeatherDisplay:10.37,2013-09-14 21:19:00,
2013-09-14 13:24:00,62.2,48.1,29.87,NE,42,9.2,9.2,60,0.00,CLR,,0.03,570.0,WeatherDisplay:10.37,2013-09-14 21:24:00,
2013-09-14 13:29:00,62.2,48.6,29.87,ENE,78,5.0,5.0,61,0.00,CLR,,0.03,573.0,WeatherDisplay:10.37,2013-09-14 21:29:00,
2013-09-14 13:34:00,62.5,49.3,29.87,ENE,71,5.8,5.8,62,0.00,CLR,,0.03,575.0,WeatherDisplay:10.37,2013-09-14 21:34:00,
2013-09-14 13:39:00,62.6,48.1,29.87,NNE,23,9.2,9.2,59,0.00,CLR,,0.03,575.0,WeatherDisplay:10.37,2013-09-14 21:39:00,
2013-09-14 13:44:00,62.7,49.1,29.87,East,83,4.6,4.6,61,0.00,CLR,,0.03,578.0,WeatherDisplay:10.37,2013-09-14 21:44:00,
2013-09-14 13:49:00,62.8,48.3,29.87,NE,48,11.0,11.0,59,0.00,CLR,,0.03,578.0,WeatherDisplay:10.37,2013-09-14 21:49:00,
2013-09-14 13:54:00,62.7,48.2,29.87,SW,217,10.4,10.4,59,0.00,CLR,,0.03,568.0,WeatherDisplay:10.37,2013-09-14 21:54:00,
2013-09-14 13:59:00,62.7,47.7,29.87,NNE,33,10.4,10.4,58,0.00,CLR,,0.03,578.0,WeatherDisplay:10.37,2013-09-14 21:59:00,
2013-09-14 14:04:00,62.8,48.3,29.87,ENE,73,8.1,8.1,59,0.00,CLR,,0.03,589.0,WeatherDisplay:10.37,2013-09-14 22:04:00,
2013-09-14 14:09:00,63.1,48.1,29.87,ENE,64,11.5,11.5,58,0.00,CLR,,0.03,577.0,WeatherDisplay:10.37,2013-09-14 22:09:00,
2013-09-14 14:14:00,63.1,48.1,29.87,NNE,23,7.0,7.0,58,0.00,CLR,,0.03,483.0,WeatherDisplay:10.37,2013-09-14 22:14:00,
2013-09-14 14:19:00,63.2,48.6,29.86,East,85,7.0,7.0,59,0.00,CLR,,0.03,559.0,WeatherDisplay:10.37,2013-09-14 22:19:00,
2013-09-14 14:24:00,63.3,49.2,29.87,NE,46,8.1,8.1,60,0.00,CLR,,0.03,592.0,WeatherDisplay:10.37,2013-09-14 22:24:00,
2013-09-14 14:29:00,63.3,48.7,29.87,NNE,25,6.9,6.9,59,0.00,CLR,,0.03,466.0,WeatherDisplay:10.37,2013-09-14 22:29:00,
2013-09-14 14:34:00,62.9,48.3,29.87,ENE,73,9.2,9.2,59,0.00,CLR,,0.03,431.0,WeatherDisplay:10.37,2013-09-14 22:34:00,
2013-09-14 14:39:00,62.4,49.2,29.87,NNE,27,5.0,5.0,62,0.00,CLR,,0.03,209.0,WeatherDisplay:10.37,2013-09-14 22:39:00,
2013-09-14 14:44:00,62.2,48.6,29.87,East,92,5.8,5.8,61,0.00,CLR,,0.03,325.0,WeatherDisplay:10.37,2013-09-14 22:44:00,
2013-09-14 14:49:00,62.1,48.9,29.87,ESE,115,4.6,4.6,62,0.00,CLR,,0.03,374.0,WeatherDisplay:10.37,2013-09-14 22:49:00,
2013-09-14 14:50:00,62.1,48.9,29.87,ESE,102,4.6,4.6,62,0.00,CLR,,0.03,534.0,WeatherDisplay:10.37,2013-09-14 22:50:00,
2013-09-14 14:55:00,62.4,49.6,29.87,NE,38,5.8,5.8,63,0.00,CLR,,0.03,596.0,WeatherDisplay:10.37,2013-09-14 22:55:00,
2013-09-14 15:00:00,62.8,49.6,29.87,North,5,7.0,7.0,62,0.00,CLR,,0.03,577.0,WeatherDisplay:10.37,2013-09-14 23:00:00,
2013-09-14 15:05:00,63.1,49.0,29.87,ENE,72,4.6,4.6,60,0.00,CLR,,0.03,566.0,WeatherDisplay:10.37,2013-09-14 23:05:00,
2013-09-14 15:10:00,63.3,48.7,29.87,East,98,6.9,6.9,59,0.00,CLR,,0.03,557.0,WeatherDisplay:10.37,2013-09-14 23:10:00,
2013-09-14 15:15:00,63.6,49.9,29.86,NNE,27,3.5,3.5,61,0.00,CLR,,0.03,550.0,WeatherDisplay:10.37,2013-09-14 23:15:00,
2013-09-14 15:20:00,63.9,49.7,29.87,East,83,6.9,6.9,60,0.00,CLR,,0.03,548.0,WeatherDisplay:10.37,2013-09-14 23:20:00,
2013-09-14 15:25:00,64.0,48.9,29.86,North,355,6.0,6.0,58,0.00,CLR,,0.03,54.0,WeatherDisplay:10.37,2013-09-14 23:25:00,
2013-09-14 15:30:00,63.9,48.8,29.86,East,84,6.9,6.9,58,0.00,CLR,,0.03,90.0,WeatherDisplay:10.37,2013-09-14 23:30:00,
2013-09-14 15:35:00,64.0,48.5,29.86,ENE,61,8.1,8.1,57,0.00,CLR,,0.03,156.0,WeatherDisplay:10.37,2013-09-14 23:35:00,
2013-09-14 15:40:00,64.0,48.0,29.86,NE,37,5.8,5.8,56,0.00,CLR,,0.03,53.0,WeatherDisplay:10.37,2013-09-14 23:40:00,
2013-09-14 15:45:00,64.1,48.5,29.86,SE,126,3.5,3.5,57,0.00,CLR,,0.03,51.0,WeatherDisplay:10.37,2013-09-14 23:45:00,
2013-09-14 15:50:00,64.2,47.7,29.86,ENE,76,7.0,7.0,55,0.00,CLR,,0.03,51.0,WeatherDisplay:10.37,2013-09-14 23:50:00,
2013-09-14 15:55:00,64.3,48.7,29.86,East,82,7.0,7.0,57,0.00,CLR,,0.03,51.0,WeatherDisplay:10.37,2013-09-14 23:55:00,
2013-09-14 16:00:00,64.3,47.8,29.86,East,79,8.1,8.1,55,0.00,CLR,,0.03,70.0,WeatherDisplay:10.37,2013-09-15 00:00:00,
2013-09-14 16:05:00,64.3,47.8,29.86,NNE,32,5.8,5.8,55,0.00,CLR,,0.03,70.0,WeatherDisplay:10.37,2013-09-15 00:05:00,
2013-09-14 16:10:00,64.3,47.3,29.86,East,86,9.2,9.2,54,0.00,CLR,,0.03,49.0,WeatherDisplay:10.37,2013-09-15 00:10:00,
2013-09-14 16:15:00,64.4,47.4,29.86,East,83,10.4,10.4,54,0.00,CLR,,0.03,47.0,WeatherDisplay:10.37,2013-09-15 00:15:00,
2013-09-14 16:20:00,64.5,47.5,29.85,ENE,72,5.8,5.8,54,0.00,CLR,,0.03,58.0,WeatherDisplay:10.37,2013-09-15 00:20:00,
2013-09-14 16:25:00,64.4,47.4,29.86,East,88,8.1,8.1,54,0.00,CLR,,0.03,67.0,WeatherDisplay:10.37,2013-09-15 00:25:00,
2013-09-14 16:30:00,64.4,47.4,29.86,ENE,59,4.0,5.2,54,0.00,CLR,,0.03,47.0,WeatherDisplay:10.37,2013-09-15 00:30:00,
2013-09-14 16:35:00,64.5,47.0,29.86,NE,41,10.4,10.4,53,0.00,CLR,,0.03,44.0,WeatherDisplay:10.37,2013-09-15 00:35:00,
2013-09-14 16:40:00,64.3,46.8,29.86,ENE,74,4.6,4.6,53,0.00,CLR,,0.03,44.0,WeatherDisplay:10.37,2013-09-15 00:40:00,
2013-09-14 16:45:00,64.3,47.3,29.85,NNE,23,3.5,3.5,54,0.00,CLR,,0.03,44.0,WeatherDisplay:10.37,2013-09-15 00:45:00,
2013-09-14 16:50:00,64.5,47.0,29.86,NE,46,9.2,9.2,53,0.00,CLR,,0.03,44.0,WeatherDisplay:10.37,2013-09-15 00:50:00,
2013-09-14 16:55:00,64.5,47.0,29.85,NE,52,5.8,5.8,53,0.00,CLR,,0.03,58.0,WeatherDisplay:10.37,2013-09-15 00:55:00,
2013-09-14 17:01:00,64.3,46.3,29.85,East,101,10.4,10.4,52,0.00,CLR,,0.03,51.0,WeatherDisplay:10.37,2013-09-15 01:01:00,
2013-09-14 17:06:00,64.2,46.7,29.85,NE,53,4.6,4.6,53,0.00,CLR,,0.03,97.0,WeatherDisplay:10.37,2013-09-15 01:06:00,
2013-09-14 17:11:00,64.1,46.6,29.85,North,355,6.9,6.9,53,0.00,CLR,,0.03,353.0,WeatherDisplay:10.37,2013-09-15 01:11:00,
2013-09-14 17:16:00,64.1,47.1,29.85,NNE,24,5.0,5.0,54,0.00,CLR,,0.03,367.0,WeatherDisplay:10.37,2013-09-15 01:16:00,
2013-09-14 17:21:00,64.3,47.3,29.85,East,83,6.9,6.9,54,0.00,CLR,,0.03,301.0,WeatherDisplay:10.37,2013-09-15 01:21:00,
2013-09-14 17:26:00,64.3,46.3,29.85,North,9,6.9,6.9,52,0.00,CLR,,0.03,40.0,WeatherDisplay:10.37,2013-09-15 01:26:00,
2013-09-14 17:31:00,64.1,49.0,29.85,NNE,20,5.0,5.0,58,0.00,CLR,,0.03,51.0,WeatherDisplay:10.37,2013-09-15 01:31:00,
2013-09-14 17:36:00,63.3,51.3,29.85,North,351,5.8,5.8,65,0.00,CLR,,0.03,37.0,WeatherDisplay:10.37,2013-09-15 01:36:00,
2013-09-14 17:41:00,62.4,51.7,29.85,North,351,3.5,3.5,68,0.00,CLR,,0.03,37.0,WeatherDisplay:10.37,2013-09-15 01:41:00,
2013-09-14 17:46:00,61.7,51.0,29.85,North,5,3.5,3.5,68,0.00,CLR,,0.03,33.0,WeatherDisplay:10.37,2013-09-15 01:46:00,
2013-09-14 17:51:00,61.3,50.6,29.85,NNW,343,4.6,4.6,68,0.00,CLR,,0.03,33.0,WeatherDisplay:10.37,2013-09-15 01:51:00,
2013-09-14 17:56:00,61.3,51.0,29.85,North,355,3.5,3.5,69,0.00,CLR,,0.03,33.0,WeatherDisplay:10.37,2013-09-15 01:56:00,
2013-09-14 18:01:00,61.4,51.5,29.85,NW,321,3.5,3.5,70,0.00,CLR,,0.03,33.0,WeatherDisplay:10.37,2013-09-15 02:01:00,
2013-09-14 18:06:00,61.2,50.9,29.85,NNW,341,4.6,4.6,69,0.00,CLR,,0.03,32.0,WeatherDisplay:10.37,2013-09-15 02:06:00,
2013-09-14 18:11:00,61.2,51.3,29.85,NE,40,6.9,6.9,70,0.00,CLR,,0.03,33.0,WeatherDisplay:10.37,2013-09-15 02:11:00,
2013-09-14 18:16:00,61.7,50.2,29.85,NE,55,3.5,3.5,66,0.00,CLR,,0.03,32.0,WeatherDisplay:10.37,2013-09-15 02:16:00,
2013-09-14 18:21:00,61.7,51.4,29.85,WNW,287,3.5,3.5,69,0.00,CLR,,0.03,33.0,WeatherDisplay:10.37,2013-09-15 02:21:00,
2013-09-14 18:26:00,61.4,50.7,29.85,NNE,15,3.5,3.5,68,0.00,CLR,,0.03,33.0,WeatherDisplay:10.37,2013-09-15 02:26:00,
2013-09-14 18:31:00,61.2,50.6,29.85,NNE,15,2.3,2.3,68,0.00,CLR,,0.03,30.0,WeatherDisplay:10.37,2013-09-15 02:31:00,
2013-09-14 18:36:00,61.0,50.0,29.85,NNW,344,3.5,3.5,67,0.00,CLR,,0.03,30.0,WeatherDisplay:10.37,2013-09-15 02:36:00,
2013-09-14 18:41:00,61.0,50.4,29.85,NNW,344,2.3,2.3,68,0.00,CLR,,0.03,30.0,WeatherDisplay:10.37,2013-09-15 02:41:00,
2013-09-14 18:46:00,60.9,50.3,29.85,NNW,344,3.5,3.5,68,0.00,CLR,,0.03,28.0,WeatherDisplay:10.37,2013-09-15 02:46:00,
2013-09-14 18:51:00,61.0,49.6,29.85,NNW,343,2.3,2.3,66,0.00,CLR,,0.03,30.0,WeatherDisplay:10.37,2013-09-15 02:51:00,
2013-09-14 18:56:00,61.0,50.4,29.85,NNW,343,2.3,2.3,68,0.00,CLR,,0.03,26.0,WeatherDisplay:10.37,2013-09-15 02:56:00,
2013-09-14 19:01:00,61.0,49.6,29.85,NNW,344,3.5,3.5,66,0.00,CLR,,0.03,26.0,WeatherDisplay:10.37,2013-09-15 03:01:00,
2013-09-14 19:06:00,61.0,50.0,29.85,NNW,344,1.2,1.2,67,0.00,CLR,,0.03,26.0,WeatherDisplay:10.37,2013-09-15 03:06:00,
2013-09-14 19:11:00,61.0,50.0,29.85,NNW,343,3.5,3.5,67,0.00,CLR,,0.03,25.0,WeatherDisplay:10.37,2013-09-15 03:11:00,
2013-09-14 19:16:00,61.0,48.7,29.85,NE,39,2.3,2.3,64,0.00,CLR,,0.03,23.0,WeatherDisplay:10.37,2013-09-15 03:16:00,
2013-09-14 19:21:00,61.0,48.7,29.85,NNE,32,3.5,3.5,64,0.00,CLR,,0.03,23.0,WeatherDisplay:10.37,2013-09-15 03:21:00,
2013-09-14 19:26:00,60.9,48.6,29.85,NE,46,3.5,3.5,64,0.00,CLR,,0.03,21.0,WeatherDisplay:10.37,2013-09-15 03:26:00,
2013-09-14 19:31:00,60.8,48.5,29.85,NE,46,3.5,3.5,64,0.00,CLR,,0.03,19.0,WeatherDisplay:10.37,2013-09-15 03:31:00,
2013-09-14 19:36:00,60.7,48.4,29.85,NE,46,1.2,0.0,64,0.00,CLR,,0.03,19.0,WeatherDisplay:10.37,2013-09-15 03:36:00,
2013-09-14 19:41:00,60.5,48.7,29.85,NE,46,1.2,1.2,65,0.00,CLR,,0.03,18.0,WeatherDisplay:10.37,2013-09-15 03:41:00,
2013-09-14 19:46:00,60.2,49.2,29.85,NE,46,2.3,2.3,67,0.00,CLR,,0.03,16.0,WeatherDisplay:10.37,2013-09-15 03:46:00,
2013-09-14 19:51:00,59.9,50.1,29.86,NE,46,0.0,0.0,70,0.00,CLR,,0.03,16.0,WeatherDisplay:10.37,2013-09-15 03:51:00,
2013-09-14 19:56:00,59.5,50.1,29.85,NE,46,0.0,0.0,71,0.00,CLR,,0.03,14.0,WeatherDisplay:10.37,2013-09-15 03:56:00,
2013-09-14 20:01:00,59.1,50.5,29.85,NE,46,0.0,0.0,73,0.00,CLR,,0.03,12.0,WeatherDisplay:10.37,2013-09-15 04:01:00,
2013-09-14 20:02:00,59.0,50.4,29.85,NE,46,0.0,0.0,73,0.00,CLR,,0.03,12.0,WeatherDisplay:10.37,2013-09-15 04:02:00,
2013-09-14 20:07:00,58.4,50.1,29.85,NE,46,0.0,0.0,74,0.00,CLR,,0.03,11.0,WeatherDisplay:10.37,2013-09-15 04:07:00,
2013-09-14 20:12:00,57.8,50.3,29.85,NE,46,0.0,0.0,76,0.00,CLR,,0.03,9.0,WeatherDisplay:10.37,2013-09-15 04:12:00,
2013-09-14 20:17:00,57.2,50.1,29.86,NE,46,0.0,0.0,77,0.00,CLR,,0.03,9.0,WeatherDisplay:10.37,2013-09-15 04:17:00,
2013-09-14 20:22:00,56.6,49.8,29.86,NE,46,0.0,0.0,78,0.00,CLR,,0.03,7.0,WeatherDisplay:10.37,2013-09-15 04:22:00,
2013-09-14 20:27:00,56.0,49.6,29.86,NE,46,0.0,0.0,79,0.00,CLR,,0.03,5.0,WeatherDisplay:10.37,2013-09-15 04:27:00,
2013-09-14 20:32:00,55.4,49.3,29.86,NE,46,0.0,0.0,80,0.00,CLR,,0.03,0.0,WeatherDisplay:10.37,2013-09-15 04:32:00,
2013-09-14 20:37:00,54.9,48.8,29.86,NE,46,0.0,0.0,80,0.00,CLR,,0.03,0.0,WeatherDisplay:10.37,2013-09-15 04:37:00,
2013-09-14 20:42:00,54.4,48.7,29.86,NE,46,0.0,0.0,81,0.00,CLR,,0.03,0.0,WeatherDisplay:10.37,2013-09-15 04:42:00,
2013-09-14 20:47:00,53.9,48.9,29.87,NE,46,0.0,0.0,83,0.00,CLR,,0.03,0.0,WeatherDisplay:10.37,2013-09-15 04:47:00,
2013-09-14 20:52:00,53.3,48.3,29.86,North,5,4.6,4.6,83,0.00,CLR,,0.03,0.0,WeatherDisplay:10.37,2013-09-15 04:52:00,
2013-09-14 20:57:00,52.9,48.2,29.87,North,5,2.3,2.3,84,0.00,CLR,,0.03,0.0,WeatherDisplay:10.37,2013-09-15 04:57:00,
2013-09-14 21:02:00,52.8,47.8,29.87,North,360,1.2,1.2,83,0.00,CLR,,0.03,0.0,WeatherDisplay:10.37,2013-09-15 05:02:00,
2013-09-14 21:07:00,52.8,47.8,29.87,North,360,1.2,1.2,83,0.00,CLR,,0.03,0.0,WeatherDisplay:10.37,2013-09-15 05:07:00,
2013-09-14 21:12:00,52.8,47.8,29.87,North,360,1.2,1.2,83,0.00,CLR,,0.03,0.0,WeatherDisplay:10.37,2013-09-15 05:12:00,
2013-09-14 21:17:00,52.7,47.7,29.87,North,360,3.5,3.5,83,0.00,CLR,,0.03,0.0,WeatherDisplay:10.37,2013-09-15 05:17:00,
2013-09-14 21:22:00,52.7,47.7,29.87,North,360,1.2,1.2,83,0.00,CLR,,0.03,0.0,WeatherDisplay:10.37,2013-09-15 05:22:00,
2013-09-14 21:27:00,52.6,47.6,29.87,North,360,0.0,0.0,83,0.00,CLR,,0.03,0.0,WeatherDisplay:10.37,2013-09-15 05:27:00,
2013-09-14 21:32:00,52.5,47.8,29.87,North,360,1.2,0.0,84,0.00,CLR,,0.03,0.0,WeatherDisplay:10.37,2013-09-15 05:32:00,
2013-09-14 21:37:00,52.3,47.6,29.87,North,360,1.2,0.0,84,0.00,CLR,,0.03,0.0,WeatherDisplay:10.37,2013-09-15 05:37:00,
2013-09-14 21:42:00,51.9,47.5,29.87,North,360,0.0,0.0,85,0.00,CLR,,0.03,0.0,WeatherDisplay:10.37,2013-09-15 05:42:00,
2013-09-14 21:47:00,51.6,47.2,29.87,North,360,0.0,0.0,85,0.00,CLR,,0.03,0.0,WeatherDisplay:10.37,2013-09-15 05:47:00,
2013-09-14 21:52:00,51.3,46.9,29.87,North,360,0.0,0.0,85,0.00,CLR,,0.03,0.0,WeatherDisplay:10.37,2013-09-15 05:52:00,
2013-09-14 21:57:00,51.0,47.0,29.87,North,360,0.0,0.0,86,0.00,CLR,,0.03,0.0,WeatherDisplay:10.37,2013-09-15 05:57:00,
2013-09-14 22:02:00,50.7,47.0,29.87,North,360,0.0,0.1,87,0.00,CLR,,0.03,0.0,WeatherDisplay:10.37,2013-09-15 06:02:00,
2013-09-14 22:07:00,50.4,46.7,29.87,North,360,1.2,1.2,87,0.00,CLR,,0.03,0.0,WeatherDisplay:10.37,2013-09-15 06:07:00,
2013-09-14 22:12:00,50.1,46.7,29.87,North,360,0.0,0.0,88,0.00,CLR,,0.03,0.0,WeatherDisplay:10.37,2013-09-15 06:12:00,
2013-09-14 22:17:00,49.9,46.5,29.87,North,360,0.0,0.0,88,0.00,CLR,,0.03,0.0,WeatherDisplay:10.37,2013-09-15 06:17:00,
2013-09-14 22:22:00,49.7,46.6,29.87,North,360,0.0,0.0,89,0.00,CLR,,0.03,0.0,WeatherDisplay:10.37,2013-09-15 06:22:00,
2013-09-14 22:27:00,49.4,46.3,29.87,North,360,0.0,0.0,89,0.00,CLR,,0.03,0.0,WeatherDisplay:10.37,2013-09-15 06:27:00,
2013-09-14 22:32:00,49.1,46.0,29.87,North,360,0.0,0.0,89,0.00,CLR,,0.03,0.0,WeatherDisplay:10.37,2013-09-15 06:32:00,
2013-09-14 22:37:00,48.9,45.8,29.87,North,360,0.0,0.0,89,0.00,CLR,,0.03,0.0,WeatherDisplay:10.37,2013-09-15 06:37:00,
2013-09-14 22:42:00,48.6,45.8,29.87,North,360,0.0,0.0,90,0.00,CLR,,0.03,0.0,WeatherDisplay:10.37,2013-09-15 06:42:00,
2013-09-14 22:47:00,48.3,45.5,29.87,North,360,0.0,0.0,90,0.00,CLR,,0.03,0.0,WeatherDisplay:10.37,2013-09-15 06:47:00,
2013-09-14 22:52:00,48.1,45.3,29.88,North,360,0.0,0.0,90,0.00,CLR,,0.03,0.0,WeatherDisplay:10.37,2013-09-15 06:52:00,
2013-09-14 22:57:00,47.8,45.0,29.88,North,360,0.0,0.0,90,0.00,CLR,,0.03,0.0,WeatherDisplay:10.37,2013-09-15 06:57:00,
2013-09-14 23:02:00,47.6,44.8,29.88,North,360,0.0,0.0,90,0.00,FEW,,0.03,0.0,WeatherDisplay:10.37,2013-09-15 07:02:00,
2013-09-14 23:07:00,47.3,44.8,29.88,North,360,0.0,0.0,91,0.00,FEW,,0.03,0.0,WeatherDisplay:10.37,2013-09-15 07:07:00,
2013-09-14 23:12:00,47.1,44.6,29.87,North,360,0.0,0.0,91,0.00,FEW,,0.03,0.0,WeatherDisplay:10.37,2013-09-15 07:12:00,
2013-09-14 23:17:00,46.8,44.3,29.88,North,360,0.0,0.0,91,0.00,FEW,,0.03,0.0,WeatherDisplay:10.37,2013-09-15 07:17:00,
2013-09-14 23:22:00,46.6,44.1,29.88,North,360,0.0,0.0,91,0.00,FEW,,0.03,0.0,WeatherDisplay:10.37,2013-09-15 07:22:00,
2013-09-14 23:27:00,46.5,44.3,29.88,North,360,0.0,0.0,92,0.00,FEW,,0.03,0.0,WeatherDisplay:10.37,2013-09-15 07:27:00,
2013-09-14 23:32:00,46.3,44.1,29.88,North,360,0.0,0.0,92,0.00,FEW,,0.03,0.0,WeatherDisplay:10.37,2013-09-15 07:32:00,
2013-09-14 23:37:00,46.1,43.9,29.88,North,360,0.0,0.0,92,0.00,FEW,,0.03,0.0,WeatherDisplay:10.37,2013-09-15 07:37:00,
2013-09-14 23:42:00,46.0,43.8,29.88,North,360,0.0,0.0,92,0.00,FEW,,0.03,0.0,WeatherDisplay:10.37,2013-09-15 07:42:00,
2013-09-14 23:47:00,45.8,43.6,29.88,North,360,0.0,0.0,92,0.00,FEW,,0.03,0.0,WeatherDisplay:10.37,2013-09-15 07:47:00,
2013-09-14 23:52:00,45.7,43.8,29.88,North,360,0.0,0.0,93,0.00,FEW,,0.03,0.0,WeatherDisplay:10.37,2013-09-15 07:52:00,
2013-09-14 23:57:00,45.5,43.6,29.88,North,360,0.0,0.0,93,0.00,FEW,,0.03,0.0,WeatherDisplay:10.37,2013-09-15 07:57:00,